sensor_id;sensor_type;location;lat;lon;timestamp;pressure;altitude;pressure_sealevel;temperature;humidity
33414;BME280;60055;41.884;12.534;2023-05-03T00:01:33;100639.69;;;17.21;78.23
33414;BME280;60055;41.884;12.534;2023-05-03T00:03:58;100639.47;;;17.24;78.32
33414;BME280;60055;41.884;12.534;2023-05-03T00:06:24;100632.41;;;17.37;77.68
33414;BME280;60055;41.884;12.534;2023-05-03T00:08:49;100623.47;;;16.83;79.71
33414;BME280;60055;41.884;12.534;2023-05-03T00:11:15;100632.78;;;16.90;79.61
33414;BME280;60055;41.884;12.534;2023-05-03T00:13:41;100627.44;;;17.04;79.08
33414;BME280;60055;41.884;12.534;2023-05-03T00:16:07;100631.69;;;17.07;78.84
33414;BME280;60055;41.884;12.534;2023-05-03T00:18:32;100637.53;;;17.13;78.82
33414;BME280;60055;41.884;12.534;2023-05-03T00:20:58;100630.47;;;17.12;78.49
33414;BME280;60055;41.884;12.534;2023-05-03T00:23:24;100637.78;;;17.23;78.19
33414;BME280;60055;41.884;12.534;2023-05-03T00:25:54;100641.81;;;17.16;78.58
33414;BME280;60055;41.884;12.534;2023-05-03T00:28:20;100636.25;;;17.19;78.41
33414;BME280;60055;41.884;12.534;2023-05-03T00:30:46;100640.91;;;17.29;78.27
33414;BME280;60055;41.884;12.534;2023-05-03T00:33:11;100635.91;;;17.37;77.45
33414;BME280;60055;41.884;12.534;2023-05-03T00:35:37;100643.34;;;17.47;76.56
33414;BME280;60055;41.884;12.534;2023-05-03T00:38:02;100641.03;;;17.41;77.08
33414;BME280;60055;41.884;12.534;2023-05-03T00:40:28;100640.66;;;17.47;76.49
33414;BME280;60055;41.884;12.534;2023-05-03T00:42:53;100646.47;;;17.53;76.70
33414;BME280;60055;41.884;12.534;2023-05-03T00:45:18;100644.53;;;17.55;76.22
33414;BME280;60055;41.884;12.534;2023-05-03T00:47:44;100634.75;;;17.56;75.84
33414;BME280;60055;41.884;12.534;2023-05-03T00:50:10;100633.78;;;17.57;76.44
33414;BME280;60055;41.884;12.534;2023-05-03T00:52:37;100636.34;;;17.58;76.48
33414;BME280;60055;41.884;12.534;2023-05-03T00:55:03;100640.44;;;17.64;75.96
33414;BME280;60055;41.884;12.534;2023-05-03T00:57:29;100633.59;;;17.60;76.26
33414;BME280;60055;41.884;12.534;2023-05-03T00:59:57;100634.91;;;17.53;76.56
33414;BME280;60055;41.884;12.534;2023-05-03T01:02:26;100639.88;;;17.45;77.13
33414;BME280;60055;41.884;12.534;2023-05-03T01:04:53;100640.75;;;17.45;77.12
33414;BME280;60055;41.884;12.534;2023-05-03T01:10:37;100633.31;;;17.50;76.49
33414;BME280;60055;41.884;12.534;2023-05-03T01:13:16;100631.34;;;17.40;77.37
33414;BME280;60055;41.884;12.534;2023-05-03T01:18:28;100619.69;;;17.41;77.57
33414;BME280;60055;41.884;12.534;2023-05-03T01:20:55;100627.81;;;17.39;77.40
33414;BME280;60055;41.884;12.534;2023-05-03T01:23:35;100625.34;;;17.36;77.33
33414;BME280;60055;41.884;12.534;2023-05-03T01:26:24;100620.56;;;17.41;77.75
33414;BME280;60055;41.884;12.534;2023-05-03T01:28:50;100625.44;;;17.34;77.98
33414;BME280;60055;41.884;12.534;2023-05-03T01:31:56;100619.34;;;17.32;78.07
33414;BME280;60055;41.884;12.534;2023-05-03T01:34:39;100616.44;;;17.23;77.91
33414;BME280;60055;41.884;12.534;2023-05-03T01:37:07;100619.19;;;17.21;78.43
33414;BME280;60055;41.884;12.534;2023-05-03T01:39:35;100619.69;;;17.14;79.02
33414;BME280;60055;41.884;12.534;2023-05-03T01:42:03;100619.28;;;16.93;79.92
33414;BME280;60055;41.884;12.534;2023-05-03T01:44:29;100617.66;;;16.76;80.44
33414;BME280;60055;41.884;12.534;2023-05-03T01:46:56;100613.53;;;16.99;79.21
33414;BME280;60055;41.884;12.534;2023-05-03T01:49:21;100621.88;;;17.07;78.57
33414;BME280;60055;41.884;12.534;2023-05-03T01:51:47;100623.22;;;17.14;78.90
33414;BME280;60055;41.884;12.534;2023-05-03T01:54:12;100635.19;;;17.21;78.47
33414;BME280;60055;41.884;12.534;2023-05-03T01:56:38;100631.13;;;17.16;78.34
33414;BME280;60055;41.884;12.534;2023-05-03T01:59:03;100634.47;;;17.05;79.10
33414;BME280;60055;41.884;12.534;2023-05-03T02:01:29;100632.06;;;17.15;78.68
33414;BME280;60055;41.884;12.534;2023-05-03T02:03:54;100629.53;;;17.13;78.48
33414;BME280;60055;41.884;12.534;2023-05-03T02:06:19;100633.03;;;17.14;78.59
33414;BME280;60055;41.884;12.534;2023-05-03T02:08:45;100632.34;;;17.10;78.43
33414;BME280;60055;41.884;12.534;2023-05-03T02:11:11;100629.31;;;17.16;77.86
33414;BME280;60055;41.884;12.534;2023-05-03T02:13:36;100619.13;;;17.09;78.38
33414;BME280;60055;41.884;12.534;2023-05-03T02:16:02;100621.16;;;17.05;78.38
33414;BME280;60055;41.884;12.534;2023-05-03T02:18:28;100622.09;;;17.04;78.20
33414;BME280;60055;41.884;12.534;2023-05-03T02:20:55;100617.53;;;17.06;78.44
33414;BME280;60055;41.884;12.534;2023-05-03T02:23:21;100619.34;;;17.06;78.49
33414;BME280;60055;41.884;12.534;2023-05-03T02:25:46;100611.63;;;17.01;79.07
33414;BME280;60055;41.884;12.534;2023-05-03T02:28:12;100616.22;;;16.99;78.29
33414;BME280;60055;41.884;12.534;2023-05-03T02:30:37;100624.97;;;17.01;78.88
33414;BME280;60055;41.884;12.534;2023-05-03T02:33:03;100617.16;;;16.84;79.17
33414;BME280;60055;41.884;12.534;2023-05-03T02:35:28;100621.16;;;16.91;78.96
33414;BME280;60055;41.884;12.534;2023-05-03T02:37:54;100616.78;;;16.90;78.57
33414;BME280;60055;41.884;12.534;2023-05-03T02:40:20;100625.25;;;16.97;78.30
33414;BME280;60055;41.884;12.534;2023-05-03T02:42:45;100625.72;;;17.03;77.79
33414;BME280;60055;41.884;12.534;2023-05-03T02:45:11;100632.41;;;16.54;78.42
33414;BME280;60055;41.884;12.534;2023-05-03T02:47:36;100629.25;;;16.33;79.46
33414;BME280;60055;41.884;12.534;2023-05-03T02:50:02;100627.16;;;16.38;79.02
33414;BME280;60055;41.884;12.534;2023-05-03T02:52:27;100627.91;;;16.26;79.32
33414;BME280;60055;41.884;12.534;2023-05-03T02:54:53;100625.25;;;16.40;79.23
33414;BME280;60055;41.884;12.534;2023-05-03T02:57:18;100623.72;;;16.36;78.67
33414;BME280;60055;41.884;12.534;2023-05-03T02:59:44;100618.88;;;16.43;78.37
33414;BME280;60055;41.884;12.534;2023-05-03T03:02:09;100626.97;;;16.41;77.64
33414;BME280;60055;41.884;12.534;2023-05-03T03:04:35;100627.16;;;16.38;77.60
33414;BME280;60055;41.884;12.534;2023-05-03T03:07:00;100625.91;;;16.29;77.44
33414;BME280;60055;41.884;12.534;2023-05-03T03:09:26;100620.09;;;16.23;76.81
33414;BME280;60055;41.884;12.534;2023-05-03T03:11:51;100625.72;;;16.18;76.72
33414;BME280;60055;41.884;12.534;2023-05-03T03:14:17;100621.63;;;16.27;76.72
33414;BME280;60055;41.884;12.534;2023-05-03T03:16:44;100620.97;;;16.38;76.18
33414;BME280;60055;41.884;12.534;2023-05-03T03:19:10;100618.69;;;16.31;76.34
33414;BME280;60055;41.884;12.534;2023-05-03T03:21:35;100635.53;;;16.32;75.63
33414;BME280;60055;41.884;12.534;2023-05-03T03:24:04;100636.47;;;16.17;75.73
33414;BME280;60055;41.884;12.534;2023-05-03T03:26:30;100645.72;;;16.25;75.57
33414;BME280;60055;41.884;12.534;2023-05-03T03:28:55;100646.22;;;16.02;76.99
33414;BME280;60055;41.884;12.534;2023-05-03T03:31:20;100642.75;;;15.86;77.21
33414;BME280;60055;41.884;12.534;2023-05-03T03:33:47;100644.44;;;15.73;77.64
33414;BME280;60055;41.884;12.534;2023-05-03T03:36:13;100640.47;;;15.80;78.17
33414;BME280;60055;41.884;12.534;2023-05-03T03:38:38;100645.16;;;15.91;77.84
33414;BME280;60055;41.884;12.534;2023-05-03T03:41:05;100646.81;;;15.77;78.30
33414;BME280;60055;41.884;12.534;2023-05-03T03:43:31;100643.25;;;15.63;78.63
33414;BME280;60055;41.884;12.534;2023-05-03T03:45:56;100646.84;;;15.62;78.29
33414;BME280;60055;41.884;12.534;2023-05-03T03:48:22;100648.38;;;15.66;78.54
33414;BME280;60055;41.884;12.534;2023-05-03T03:50:48;100652.16;;;15.62;78.35
33414;BME280;60055;41.884;12.534;2023-05-03T03:53:13;100659.06;;;15.50;78.90
33414;BME280;60055;41.884;12.534;2023-05-03T03:55:39;100654.75;;;15.48;78.85
33414;BME280;60055;41.884;12.534;2023-05-03T03:58:04;100658.22;;;15.50;79.53
33414;BME280;60055;41.884;12.534;2023-05-03T04:00:30;100648.66;;;15.46;79.77
33414;BME280;60055;41.884;12.534;2023-05-03T04:02:55;100658.44;;;15.45;79.89
33414;BME280;60055;41.884;12.534;2023-05-03T04:05:20;100656.63;;;15.46;80.12
33414;BME280;60055;41.884;12.534;2023-05-03T04:07:46;100659.41;;;15.44;80.14
33414;BME280;60055;41.884;12.534;2023-05-03T04:10:11;100664.63;;;15.46;80.38
33414;BME280;60055;41.884;12.534;2023-05-03T04:12:37;100661.63;;;15.52;80.14
33414;BME280;60055;41.884;12.534;2023-05-03T04:15:03;100666.53;;;15.59;79.90
33414;BME280;60055;41.884;12.534;2023-05-03T04:17:28;100671.91;;;15.73;80.37
33414;BME280;60055;41.884;12.534;2023-05-03T04:19:54;100671.84;;;15.89;79.68
33414;BME280;60055;41.884;12.534;2023-05-03T04:22:19;100666.66;;;15.88;79.03
33414;BME280;60055;41.884;12.534;2023-05-03T04:24:45;100671.97;;;15.88;79.23
33414;BME280;60055;41.884;12.534;2023-05-03T04:27:12;100676.28;;;15.74;79.87
33414;BME280;60055;41.884;12.534;2023-05-03T04:29:39;100663.00;;;15.59;80.91
33414;BME280;60055;41.884;12.534;2023-05-03T04:32:04;100673.88;;;15.39;81.93
33414;BME280;60055;41.884;12.534;2023-05-03T04:34:30;100676.66;;;15.53;81.01
33414;BME280;60055;41.884;12.534;2023-05-03T04:36:56;100688.06;;;15.39;81.35
33414;BME280;60055;41.884;12.534;2023-05-03T04:39:22;100690.03;;;15.35;81.93
33414;BME280;60055;41.884;12.534;2023-05-03T04:41:48;100689.16;;;15.35;81.69
33414;BME280;60055;41.884;12.534;2023-05-03T04:44:14;100698.19;;;15.32;81.88
33414;BME280;60055;41.884;12.534;2023-05-03T04:46:39;100701.09;;;15.28;82.43
33414;BME280;60055;41.884;12.534;2023-05-03T04:49:05;100706.94;;;15.34;82.01
33414;BME280;60055;41.884;12.534;2023-05-03T04:51:31;100713.97;;;15.35;82.31
33414;BME280;60055;41.884;12.534;2023-05-03T04:53:57;100715.41;;;15.41;81.98
33414;BME280;60055;41.884;12.534;2023-05-03T04:56:22;100709.22;;;15.58;81.45
33414;BME280;60055;41.884;12.534;2023-05-03T04:58:51;100721.47;;;15.60;81.37
33414;BME280;60055;41.884;12.534;2023-05-03T05:01:17;100719.25;;;15.53;81.68
33414;BME280;60055;41.884;12.534;2023-05-03T05:03:43;100716.63;;;15.35;82.62
33414;BME280;60055;41.884;12.534;2023-05-03T05:06:08;100729.72;;;15.56;81.49
33414;BME280;60055;41.884;12.534;2023-05-03T05:08:35;100736.84;;;15.55;81.77
33414;BME280;60055;41.884;12.534;2023-05-03T05:11:01;100734.94;;;15.73;81.37
33414;BME280;60055;41.884;12.534;2023-05-03T05:13:29;100735.66;;;16.06;80.12
33414;BME280;60055;41.884;12.534;2023-05-03T05:15:54;100740.31;;;16.32;79.74
33414;BME280;60055;41.884;12.534;2023-05-03T05:18:20;100735.00;;;16.62;78.49
33414;BME280;60055;41.884;12.534;2023-05-03T05:20:45;100739.78;;;16.42;77.99
33414;BME280;60055;41.884;12.534;2023-05-03T05:23:11;100746.31;;;16.80;77.32
33414;BME280;60055;41.884;12.534;2023-05-03T05:25:36;100739.38;;;16.92;76.13
33414;BME280;60055;41.884;12.534;2023-05-03T05:28:01;100749.34;;;17.59;75.45
33414;BME280;60055;41.884;12.534;2023-05-03T05:30:27;100745.13;;;17.69;73.34
33414;BME280;60055;41.884;12.534;2023-05-03T05:32:52;100753.63;;;18.42;71.27
33414;BME280;60055;41.884;12.534;2023-05-03T05:35:18;100759.78;;;18.94;69.26
33414;BME280;60055;41.884;12.534;2023-05-03T05:37:43;100762.63;;;19.16;68.21
33414;BME280;60055;41.884;12.534;2023-05-03T05:40:09;100756.53;;;19.52;67.46
33414;BME280;60055;41.884;12.534;2023-05-03T05:42:35;100753.84;;;19.52;66.45
33414;BME280;60055;41.884;12.534;2023-05-03T05:45:00;100753.03;;;19.99;65.29
33414;BME280;60055;41.884;12.534;2023-05-03T05:47:26;100755.16;;;20.30;63.76
33414;BME280;60055;41.884;12.534;2023-05-03T05:49:51;100756.75;;;20.33;62.58
33414;BME280;60055;41.884;12.534;2023-05-03T05:52:17;100760.50;;;20.30;61.95
33414;BME280;60055;41.884;12.534;2023-05-03T05:54:42;100768.13;;;20.48;62.30
33414;BME280;60055;41.884;12.534;2023-05-03T05:57:08;100764.78;;;20.68;61.97
33414;BME280;60055;41.884;12.534;2023-05-03T05:59:33;100764.47;;;20.25;62.30
33414;BME280;60055;41.884;12.534;2023-05-03T06:01:58;100765.00;;;19.46;64.79
33414;BME280;60055;41.884;12.534;2023-05-03T06:04:24;100763.50;;;19.29;65.83
33414;BME280;60055;41.884;12.534;2023-05-03T06:06:50;100770.25;;;19.48;64.74
33414;BME280;60055;41.884;12.534;2023-05-03T06:09:15;100771.81;;;19.63;63.23
33414;BME280;60055;41.884;12.534;2023-05-03T06:11:41;100772.50;;;20.01;62.75
33414;BME280;60055;41.884;12.534;2023-05-03T06:14:07;100761.16;;;19.98;63.05
33414;BME280;60055;41.884;12.534;2023-05-03T06:16:35;100765.00;;;20.06;62.74
33414;BME280;60055;41.884;12.534;2023-05-03T06:19:01;100765.06;;;20.17;63.08
33414;BME280;60055;41.884;12.534;2023-05-03T06:21:26;100781.25;;;19.56;63.87
33414;BME280;60055;41.884;12.534;2023-05-03T06:23:54;100776.47;;;20.32;62.59
33414;BME280;60055;41.884;12.534;2023-05-03T06:26:19;100780.56;;;20.25;61.95
33414;BME280;60055;41.884;12.534;2023-05-03T06:28:45;100771.72;;;20.12;62.20
33414;BME280;60055;41.884;12.534;2023-05-03T06:31:11;100774.53;;;20.10;61.50
33414;BME280;60055;41.884;12.534;2023-05-03T06:33:37;100781.41;;;19.78;62.36
33414;BME280;60055;41.884;12.534;2023-05-03T06:36:03;100785.13;;;19.52;62.32
33414;BME280;60055;41.884;12.534;2023-05-03T06:38:28;100783.19;;;19.54;62.78
33414;BME280;60055;41.884;12.534;2023-05-03T06:40:53;100786.31;;;19.84;61.86
33414;BME280;60055;41.884;12.534;2023-05-03T06:43:19;100793.03;;;19.66;61.84
33414;BME280;60055;41.884;12.534;2023-05-03T06:45:45;100792.63;;;19.59;61.70
33414;BME280;60055;41.884;12.534;2023-05-03T06:48:11;100793.78;;;19.55;61.75
33414;BME280;60055;41.884;12.534;2023-05-03T06:50:37;100799.38;;;19.52;60.95
33414;BME280;60055;41.884;12.534;2023-05-03T06:53:04;100801.88;;;19.43;61.23
33414;BME280;60055;41.884;12.534;2023-05-03T06:55:29;100809.22;;;19.14;62.54
33414;BME280;60055;41.884;12.534;2023-05-03T06:57:57;100818.53;;;19.33;62.46
33414;BME280;60055;41.884;12.534;2023-05-03T07:00:22;100817.25;;;19.14;63.37
33414;BME280;60055;41.884;12.534;2023-05-03T07:02:50;100816.84;;;18.95;63.57
33414;BME280;60055;41.884;12.534;2023-05-03T07:05:15;100805.88;;;18.72;64.50
33414;BME280;60055;41.884;12.534;2023-05-03T07:07:41;100816.06;;;18.80;63.51
33414;BME280;60055;41.884;12.534;2023-05-03T07:10:06;100814.75;;;18.73;63.50
33414;BME280;60055;41.884;12.534;2023-05-03T07:12:32;100808.28;;;19.02;62.98
33414;BME280;60055;41.884;12.534;2023-05-03T07:14:58;100819.84;;;19.03;62.70
33414;BME280;60055;41.884;12.534;2023-05-03T07:17:23;100809.66;;;19.08;62.22
33414;BME280;60055;41.884;12.534;2023-05-03T07:19:49;100810.09;;;19.39;61.72
33414;BME280;60055;41.884;12.534;2023-05-03T07:22:15;100803.56;;;19.44;62.06
33414;BME280;60055;41.884;12.534;2023-05-03T07:24:41;100810.09;;;19.88;60.82
33414;BME280;60055;41.884;12.534;2023-05-03T07:27:06;100809.75;;;19.69;61.40
33414;BME280;60055;41.884;12.534;2023-05-03T07:29:32;100823.59;;;20.23;60.11
33414;BME280;60055;41.884;12.534;2023-05-03T07:31:58;100813.09;;;19.84;61.16
33414;BME280;60055;41.884;12.534;2023-05-03T07:34:24;100804.00;;;19.86;61.40
33414;BME280;60055;41.884;12.534;2023-05-03T07:36:49;100812.09;;;20.21;61.16
33414;BME280;60055;41.884;12.534;2023-05-03T07:39:16;100804.72;;;20.95;59.18
33414;BME280;60055;41.884;12.534;2023-05-03T07:41:41;100803.41;;;21.67;57.26
33414;BME280;60055;41.884;12.534;2023-05-03T07:44:09;100809.28;;;21.72;56.13
33414;BME280;60055;41.884;12.534;2023-05-03T07:46:34;100810.78;;;21.31;56.55
33414;BME280;60055;41.884;12.534;2023-05-03T07:49:01;100801.00;;;21.42;56.35
33414;BME280;60055;41.884;12.534;2023-05-03T07:51:27;100796.56;;;21.96;55.66
33414;BME280;60055;41.884;12.534;2023-05-03T07:53:53;100802.69;;;21.65;54.44
33414;BME280;60055;41.884;12.534;2023-05-03T07:56:20;100807.09;;;21.10;55.59
33414;BME280;60055;41.884;12.534;2023-05-03T07:58:46;100804.66;;;21.18;54.86
33414;BME280;60055;41.884;12.534;2023-05-03T08:01:11;100806.75;;;21.37;53.71
33414;BME280;60055;41.884;12.534;2023-05-03T08:03:37;100808.59;;;21.59;54.18
33414;BME280;60055;41.884;12.534;2023-05-03T08:06:03;100811.25;;;21.92;52.94
33414;BME280;60055;41.884;12.534;2023-05-03T08:08:28;100809.75;;;22.10;52.53
33414;BME280;60055;41.884;12.534;2023-05-03T08:10:55;100813.38;;;22.20;52.24
33414;BME280;60055;41.884;12.534;2023-05-03T08:13:21;100823.06;;;22.75;51.57
33414;BME280;60055;41.884;12.534;2023-05-03T08:15:47;100822.81;;;22.99;50.86
33414;BME280;60055;41.884;12.534;2023-05-03T08:18:13;100823.53;;;22.80;50.97
33414;BME280;60055;41.884;12.534;2023-05-03T08:20:38;100823.00;;;22.55;51.35
33414;BME280;60055;41.884;12.534;2023-05-03T08:23:04;100824.47;;;22.59;51.70
33414;BME280;60055;41.884;12.534;2023-05-03T08:25:29;100823.13;;;22.85;51.03
33414;BME280;60055;41.884;12.534;2023-05-03T08:27:55;100825.03;;;22.41;52.00
33414;BME280;60055;41.884;12.534;2023-05-03T08:30:20;100831.34;;;22.52;51.96
33414;BME280;60055;41.884;12.534;2023-05-03T08:32:50;100834.34;;;22.37;52.47
33414;BME280;60055;41.884;12.534;2023-05-03T08:35:15;100834.78;;;22.11;52.77
33414;BME280;60055;41.884;12.534;2023-05-03T08:37:42;100832.50;;;21.95;52.79
33414;BME280;60055;41.884;12.534;2023-05-03T08:40:08;100826.88;;;21.76;53.95
33414;BME280;60055;41.884;12.534;2023-05-03T08:42:39;100822.88;;;21.93;53.61
33414;BME280;60055;41.884;12.534;2023-05-03T08:45:08;100827.84;;;21.86;53.43
33414;BME280;60055;41.884;12.534;2023-05-03T08:47:34;100825.41;;;21.94;53.85
33414;BME280;60055;41.884;12.534;2023-05-03T08:50:03;100835.16;;;21.84;54.18
33414;BME280;60055;41.884;12.534;2023-05-03T08:52:29;100835.22;;;21.73;53.68
33414;BME280;60055;41.884;12.534;2023-05-03T08:54:55;100839.63;;;21.63;53.03
33414;BME280;60055;41.884;12.534;2023-05-03T08:57:22;100835.94;;;21.53;53.57
33414;BME280;60055;41.884;12.534;2023-05-03T08:59:48;100847.91;;;21.37;54.07
33414;BME280;60055;41.884;12.534;2023-05-03T09:02:15;100856.19;;;21.34;54.54
33414;BME280;60055;41.884;12.534;2023-05-03T09:04:41;100851.22;;;21.06;55.29
33414;BME280;60055;41.884;12.534;2023-05-03T09:07:09;100854.75;;;20.96;56.05
33414;BME280;60055;41.884;12.534;2023-05-03T09:09:35;100855.50;;;20.98;55.54
33414;BME280;60055;41.884;12.534;2023-05-03T09:12:01;100864.28;;;21.00;55.86
33414;BME280;60055;41.884;12.534;2023-05-03T09:14:27;100859.19;;;21.08;56.56
33414;BME280;60055;41.884;12.534;2023-05-03T09:16:52;100864.38;;;20.87;56.45
33414;BME280;60055;41.884;12.534;2023-05-03T09:19:18;100860.34;;;20.81;56.81
33414;BME280;60055;41.884;12.534;2023-05-03T09:21:45;100866.78;;;20.79;56.87
33414;BME280;60055;41.884;12.534;2023-05-03T09:24:15;100855.72;;;20.60;57.95
33414;BME280;60055;41.884;12.534;2023-05-03T09:26:40;100860.72;;;20.88;56.86
33414;BME280;60055;41.884;12.534;2023-05-03T09:29:09;100870.34;;;20.90;56.38
33414;BME280;60055;41.884;12.534;2023-05-03T09:31:35;100862.78;;;20.96;56.22
33414;BME280;60055;41.884;12.534;2023-05-03T09:34:02;100861.66;;;21.11;56.44
33414;BME280;60055;41.884;12.534;2023-05-03T09:36:48;100862.38;;;21.13;55.95
33414;BME280;60055;41.884;12.534;2023-05-03T09:39:19;100858.00;;;21.12;56.28
33414;BME280;60055;41.884;12.534;2023-05-03T09:41:45;100864.38;;;21.22;55.75
33414;BME280;60055;41.884;12.534;2023-05-03T09:44:11;100859.69;;;21.13;55.45
33414;BME280;60055;41.884;12.534;2023-05-03T09:46:37;100871.75;;;21.07;55.18
33414;BME280;60055;41.884;12.534;2023-05-03T09:49:02;100859.84;;;21.11;55.32
33414;BME280;60055;41.884;12.534;2023-05-03T09:51:28;100869.25;;;21.28;54.65
33414;BME280;60055;41.884;12.534;2023-05-03T09:53:57;100860.47;;;21.37;54.64
33414;BME280;60055;41.884;12.534;2023-05-03T09:56:23;100856.94;;;21.25;54.60
33414;BME280;60055;41.884;12.534;2023-05-03T09:58:51;100863.88;;;21.28;55.00
33414;BME280;60055;41.884;12.534;2023-05-03T10:01:17;100867.94;;;21.67;54.16
33414;BME280;60055;41.884;12.534;2023-05-03T10:03:45;100855.00;;;21.94;52.84
33414;BME280;60055;41.884;12.534;2023-05-03T10:06:30;100850.88;;;22.33;51.79
33414;BME280;60055;41.884;12.534;2023-05-03T10:09:04;100850.84;;;22.44;51.38
33414;BME280;60055;41.884;12.534;2023-05-03T10:11:33;100840.84;;;22.35;50.23
33414;BME280;60055;41.884;12.534;2023-05-03T10:13:59;100850.19;;;22.52;50.41
33414;BME280;60055;41.884;12.534;2023-05-03T10:16:28;100847.13;;;22.56;50.67
33414;BME280;60055;41.884;12.534;2023-05-03T10:19:03;100842.13;;;22.52;49.92
33414;BME280;60055;41.884;12.534;2023-05-03T10:24:13;100836.31;;;22.35;48.70
33414;BME280;60055;41.884;12.534;2023-05-03T10:26:41;100836.34;;;22.24;49.38
33414;BME280;60055;41.884;12.534;2023-05-03T10:34:31;100825.16;;;22.72;48.67
33414;BME280;60055;41.884;12.534;2023-05-03T10:37:01;100824.91;;;22.96;47.30
33414;BME280;60055;41.884;12.534;2023-05-03T10:39:27;100831.59;;;23.22;46.79
33414;BME280;60055;41.884;12.534;2023-05-03T10:42:05;100831.78;;;23.30;46.85
33414;BME280;60055;41.884;12.534;2023-05-03T10:44:52;100826.72;;;23.16;44.14
33414;BME280;60055;41.884;12.534;2023-05-03T10:47:20;100821.63;;;23.13;44.37
33414;BME280;60055;41.884;12.534;2023-05-03T10:55:16;100818.34;;;22.88;44.01
33414;BME280;60055;41.884;12.534;2023-05-03T10:57:44;100823.13;;;22.85;44.52
33414;BME280;60055;41.884;12.534;2023-05-03T11:00:22;100821.22;;;22.76;43.53
33414;BME280;60055;41.884;12.534;2023-05-03T11:05:32;100815.84;;;22.97;43.35
33414;BME280;60055;41.884;12.534;2023-05-03T11:08:12;100817.56;;;22.98;43.22
33414;BME280;60055;41.884;12.534;2023-05-03T11:10:39;100822.69;;;23.21;42.97
33414;BME280;60055;41.884;12.534;2023-05-03T11:13:05;100818.19;;;23.31;41.84
33414;BME280;60055;41.884;12.534;2023-05-03T11:15:31;100802.44;;;23.36;42.04
33414;BME280;60055;41.884;12.534;2023-05-03T11:17:57;100819.59;;;23.35;41.32
33414;BME280;60055;41.884;12.534;2023-05-03T11:20:23;100817.91;;;23.34;40.11
33414;BME280;60055;41.884;12.534;2023-05-03T11:22:49;100812.94;;;23.09;39.89
33414;BME280;60055;41.884;12.534;2023-05-03T11:25:15;100807.13;;;23.04;40.42
33414;BME280;60055;41.884;12.534;2023-05-03T11:27:41;100817.91;;;23.04;40.27
33414;BME280;60055;41.884;12.534;2023-05-03T11:30:07;100814.94;;;23.07;42.02
33414;BME280;60055;41.884;12.534;2023-05-03T11:32:33;100808.97;;;22.83;44.35
33414;BME280;60055;41.884;12.534;2023-05-03T11:35:00;100810.16;;;22.90;45.53
33414;BME280;60055;41.884;12.534;2023-05-03T11:37:27;100807.31;;;22.91;44.73
33414;BME280;60055;41.884;12.534;2023-05-03T11:39:53;100814.28;;;23.15;44.73
33414;BME280;60055;41.884;12.534;2023-05-03T11:42:18;100806.34;;;23.23;45.03
33414;BME280;60055;41.884;12.534;2023-05-03T11:44:43;100795.28;;;23.47;43.04
33414;BME280;60055;41.884;12.534;2023-05-03T11:47:09;100802.97;;;23.51;42.88
33414;BME280;60055;41.884;12.534;2023-05-03T11:49:35;100810.88;;;23.43;43.06
33414;BME280;60055;41.884;12.534;2023-05-03T11:52:00;100806.50;;;23.42;42.43
33414;BME280;60055;41.884;12.534;2023-05-03T11:54:26;100803.00;;;23.61;42.11
33414;BME280;60055;41.884;12.534;2023-05-03T11:56:54;100796.41;;;23.84;41.76
33414;BME280;60055;41.884;12.534;2023-05-03T11:59:33;100802.56;;;23.56;42.29
33414;BME280;60055;41.884;12.534;2023-05-03T12:02:00;100807.25;;;23.54;42.28
33414;BME280;60055;41.884;12.534;2023-05-03T12:04:26;100806.28;;;23.64;42.09
33414;BME280;60055;41.884;12.534;2023-05-03T12:06:52;100791.69;;;23.76;42.15
33414;BME280;60055;41.884;12.534;2023-05-03T12:09:17;100797.81;;;23.69;43.97
33414;BME280;60055;41.884;12.534;2023-05-03T12:11:45;100796.63;;;23.52;43.98
33414;BME280;60055;41.884;12.534;2023-05-03T12:14:13;100794.81;;;23.62;43.92
33414;BME280;60055;41.884;12.534;2023-05-03T12:16:48;100801.16;;;23.31;46.38
33414;BME280;60055;41.884;12.534;2023-05-03T12:19:28;100802.44;;;23.57;44.85
33414;BME280;60055;41.884;12.534;2023-05-03T12:21:54;100817.97;;;23.74;43.67
33414;BME280;60055;41.884;12.534;2023-05-03T12:24:20;100806.56;;;23.61;44.30
33414;BME280;60055;41.884;12.534;2023-05-03T12:26:48;100804.00;;;23.60;43.70
33414;BME280;60055;41.884;12.534;2023-05-03T12:29:13;100808.34;;;23.42;45.47
33414;BME280;60055;41.884;12.534;2023-05-03T12:31:40;100805.88;;;23.38;45.44
33414;BME280;60055;41.884;12.534;2023-05-03T12:34:06;100805.41;;;23.54;44.32
33414;BME280;60055;41.884;12.534;2023-05-03T12:36:33;100808.13;;;23.64;45.05
33414;BME280;60055;41.884;12.534;2023-05-03T12:38:59;100798.41;;;23.82;44.33
33414;BME280;60055;41.884;12.534;2023-05-03T12:41:25;100804.06;;;23.79;43.10
33414;BME280;60055;41.884;12.534;2023-05-03T12:43:53;100804.81;;;24.00;43.85
33414;BME280;60055;41.884;12.534;2023-05-03T12:46:18;100796.06;;;24.17;44.70
33414;BME280;60055;41.884;12.534;2023-05-03T12:48:44;100787.66;;;24.11;45.28
33414;BME280;60055;41.884;12.534;2023-05-03T12:51:10;100795.44;;;23.85;46.25
33414;BME280;60055;41.884;12.534;2023-05-03T12:53:35;100798.25;;;23.83;45.78
33414;BME280;60055;41.884;12.534;2023-05-03T12:56:01;100799.47;;;23.60;46.95
33414;BME280;60055;41.884;12.534;2023-05-03T12:58:26;100794.81;;;23.72;45.69
33414;BME280;60055;41.884;12.534;2023-05-03T13:00:51;100780.75;;;23.59;46.56